Guemes, Washington
Current Conditions -  °F | °C
As of 8:56 AM on Saturday 25 Oct 2014 (Local Time) from KNUW Reporting Station
Light Rain Light Rain  
Wind Chill: 52°   Ceiling: 6000
Heat Index: 52°   Visibility: 10mi
Dew Point: 48°   Wind: 16mph
Humidity: 86%   Direction: 110°ESE
Pressure: 29.49"   Gusts: NA
Location:  48.4652°N, 122.617°W
Report Text: KNUW 251556Z 11014KT 10SM -RA FEW030 BKN060 OVC110 11/09 A2949 RMK AO2 RAB04E31B48 SLP989 P0000 T01110089 $
Loading
Personal Weather Stations






























Interactive Weather Map
Tropical Storm Tracking
New forecast layout! Learn more

10-Day Weather Forecast

Advertisements
Track Severe Weather on mobile